This is the latest recevied weather packets stored in our database for station/object HK2LS-SM. If no packets are shown the sender has not sent any weather packets the latest 10 day(s).
| Time | Temp. | Humidity | Pressure | Rain* | Wind** | Luminosity | Snow |
|---|---|---|---|---|---|---|---|
| 1777949692 | 29.44° C | 75% | 1007.1 hPa | 0 mm | - | - | - |
| 1777948487 | 29.44° C | 75% | 1007.1 hPa | 0 mm | - | - | - |
| 1777946917 | 29.44° C | 75% | 1007.1 hPa | 0 mm | - | - | - |
| 1777939289 | 30.56° C | 73% | 1007.1 hPa | 0 mm | - | - | - |
| 1777937118 | 31.67° C | 70% | 1006.4 hPa | 0 mm | - | - | - |
| 1777933588 | 33.33° C | 68% | 1009.8 hPa | 0 mm | - | - | - |
| 1777933287 | 33.33° C | 67% | 1009.8 hPa | 0 mm | - | - | - |
| 1777932020 | 32.78° C | 67% | 1009.8 hPa | 0 mm | - | - | - |
| 1777929547 | 32.78° C | 65% | 1009.8 hPa | 0 mm | - | - | - |
| 1777928642 | 32.78° C | 66% | 1009.8 hPa | 0 mm | - | - | - |
| 1777926771 | 32.78° C | 65% | 1009.8 hPa | 0 mm | - | - | - |
| 1777925566 | 32.22° C | 68% | 1009.8 hPa | 0 mm | - | - | - |
| 1777924362 | 32.78° C | 67% | 1009.8 hPa | 0 mm | - | - | - |
| 1777918301 | 31.67° C | 71% | 1009.8 hPa | 0 mm | - | - | - |
| 1777915194 | 31.11° C | 75% | 1009.8 hPa | 0 mm | - | - | - |
| 1777912389 | 30° C | 77% | 1009.8 hPa | 0 mm | - | - | - |
| 1777911787 | 30° C | 78% | 1009.8 hPa | 0 mm | - | - | - |
| 1777908776 | 30.56° C | 74% | 1009.8 hPa | 0 mm | - | - | - |
| 1777907238 | 32.78° C | 67% | 1009.8 hPa | 0 mm | - | - | - |
| 1777904162 | 33.89° C | 62% | 1009.8 hPa | 0 mm | - | - | - |
| 1777902594 | 31.67° C | 68% | 1009.8 hPa | 0 mm | - | - | - |
| 1777902293 | 32.22° C | 67% | 1009.8 hPa | 0 mm | - | - | - |
| 1777901691 | 31.67° C | 69% | 1009.8 hPa | 0 mm | - | - | - |
| 1777900455 | 30° C | 72% | 1009.8 hPa | 0 mm | - | - | - |
| 1777898948 | 28.89° C | 74% | 1009.5 hPa | 0 mm | - | - | - |
* Rain latest hour (hover to see other rain measurements)
** Current wind speed in m/s (hover to see current wind gust speed)